createdAt,value
2022-11-21T00:01:17.794Z,96736.22
2022-11-21T00:03:45.152Z,96739.72
2022-11-21T00:06:12.045Z,96737.97
2022-11-21T00:08:44.382Z,96723.56
2022-11-21T00:11:11.303Z,96717.34
2022-11-21T00:13:38.112Z,96713.97
2022-11-21T00:16:11.847Z,96729.41
2022-11-21T00:18:39.105Z,96726.72
2022-11-21T00:21:14.228Z,96730.22
2022-11-21T00:23:41.125Z,96724.16
2022-11-21T00:26:10.452Z,96722.19
2022-11-21T00:28:37.216Z,96723.59
2022-11-21T00:31:05.679Z,96719.38
2022-11-21T00:33:35.642Z,96717.72
2022-11-21T00:36:09.923Z,96710.00
2022-11-21T00:38:37.197Z,96714.16
2022-11-21T00:41:04.548Z,96711.56
2022-11-21T00:43:31.301Z,96709.81
2022-11-21T00:46:01.129Z,96708.88
2022-11-21T00:48:28.844Z,96714.63
2022-11-21T00:50:55.728Z,96713.59
2022-11-21T00:53:22.475Z,96716.97
2022-11-21T00:55:49.200Z,96710.78
2022-11-21T00:58:15.920Z,96706.75
2022-11-21T01:00:42.648Z,96710.16
2022-11-21T01:03:09.607Z,96711.44
2022-11-21T01:05:36.341Z,96707.03
2022-11-21T01:08:03.283Z,96692.16
2022-11-21T01:10:29.972Z,96703.28
2022-11-21T01:12:56.689Z,96696.38
2022-11-21T01:15:23.546Z,96687.03
2022-11-21T01:17:50.245Z,96695.47
2022-11-21T01:20:16.987Z,96683.88
2022-11-21T01:22:43.997Z,96699.25
2022-11-21T01:25:10.702Z,96687.78
2022-11-21T01:27:37.439Z,96697.03
2022-11-21T01:30:04.729Z,96694.34
2022-11-21T01:32:31.456Z,96688.38
2022-11-21T01:34:58.163Z,96680.53
2022-11-21T01:37:25.078Z,96688.53
2022-11-21T01:39:51.976Z,96686.19
2022-11-21T01:42:18.770Z,96690.41
2022-11-21T01:44:53.343Z,96696.84
2022-11-21T01:47:22.456Z,96690.06
2022-11-21T01:49:50.912Z,96695.91
2022-11-21T01:52:22.407Z,96693.50
2022-11-21T01:55:05.453Z,96684.59
2022-11-21T01:57:46.023Z,96687.63
2022-11-21T02:00:23.488Z,96682.25
2022-11-21T02:02:58.956Z,96691.31
2022-11-21T02:05:33.482Z,96676.28
2022-11-21T02:08:09.427Z,96686.34
2022-11-21T02:10:39.731Z,96689.97
2022-11-21T02:13:06.468Z,96684.13
2022-11-21T02:15:33.234Z,96679.09
2022-11-21T02:17:59.919Z,96682.91
2022-11-21T02:20:29.135Z,96682.22
2022-11-21T02:23:16.270Z,96677.66
2022-11-21T02:25:43.403Z,96679.63
2022-11-21T02:28:15.975Z,96685.00
2022-11-21T02:30:43.800Z,96696.16
2022-11-21T02:33:13.013Z,96685.84
2022-11-21T02:35:40.657Z,96677.50
2022-11-21T02:38:33.453Z,96673.50
2022-11-21T02:41:12.800Z,96676.06
2022-11-21T02:43:54.327Z,96677.25
2022-11-21T02:46:21.026Z,96680.88
2022-11-21T02:48:48.063Z,96675.59
2022-11-21T02:51:14.819Z,96674.78
2022-11-21T02:53:41.584Z,96673.97
2022-11-21T02:56:08.337Z,96668.69
2022-11-21T02:58:35.423Z,96676.41
2022-11-21T03:01:02.126Z,96672.31
2022-11-21T03:03:29.023Z,96668.47
2022-11-21T03:05:56.597Z,96676.41
2022-11-21T03:08:23.291Z,96665.28
2022-11-21T03:10:49.999Z,96662.94
2022-11-21T03:13:16.723Z,96665.53
2022-11-21T03:15:43.453Z,96662.00
2022-11-21T03:18:10.206Z,96653.56
2022-11-21T03:20:36.915Z,96654.38
2022-11-21T03:23:04.212Z,96654.50
2022-11-21T03:25:31.327Z,96641.63
2022-11-21T03:27:58.060Z,96652.88
2022-11-21T03:30:27.423Z,96663.06
2022-11-21T03:32:58.339Z,96662.25
2022-11-21T03:35:26.142Z,96638.09
2022-11-21T03:37:53.353Z,96648.41
2022-11-21T03:40:20.371Z,96657.91
2022-11-21T03:42:47.107Z,96661.31
2022-11-21T03:45:13.894Z,96656.03
2022-11-21T03:47:41.124Z,96650.06
2022-11-21T03:50:08.438Z,96646.53
2022-11-21T03:52:35.162Z,96646.78
2022-11-21T03:55:01.862Z,96645.72
2022-11-21T03:57:28.635Z,96644.91
2022-11-21T03:59:55.331Z,96642.31
2022-11-21T04:02:22.029Z,96638.94
2022-11-21T04:04:48.725Z,96639.75
2022-11-21T04:07:16.294Z,96639.75
2022-11-21T04:09:43.062Z,96630.38
2022-11-21T04:12:09.750Z,96632.97
2022-11-21T04:14:36.444Z,96628.03
2022-11-21T04:17:03.347Z,96633.78
2022-11-21T04:19:30.109Z,96637.06
2022-11-21T04:21:56.861Z,96631.09
2022-11-21T04:24:23.610Z,96637.88
2022-11-21T04:26:50.303Z,96629.91
2022-11-21T04:29:17.003Z,96633.31
2022-11-21T04:31:43.741Z,96627.44
2022-11-21T04:34:10.527Z,96627.09
2022-11-21T04:36:37.450Z,96627.09
2022-11-21T04:39:04.498Z,96620.09
2022-11-21T04:41:31.278Z,96625.25
2022-11-21T04:43:57.995Z,96616.59
2022-11-21T04:46:24.722Z,96612.03
2022-11-21T04:48:51.445Z,96626.66
2022-11-21T04:51:18.185Z,96613.78
2022-11-21T04:53:44.924Z,96623.38
2022-11-21T04:56:14.521Z,96619.88
2022-11-21T04:58:41.251Z,96614.94
2022-11-21T05:01:09.333Z,96616.78
2022-11-21T05:03:36.737Z,96621.88
2022-11-21T05:06:03.640Z,96621.94
2022-11-21T05:08:30.415Z,96619.88
2022-11-21T05:11:15.510Z,96626.09
2022-11-21T05:13:42.252Z,96618.22
2022-11-21T05:16:09.146Z,96616.34
2022-11-21T05:18:35.828Z,96622.69
2022-11-21T05:21:03.502Z,96615.78
2022-11-21T05:23:30.481Z,96616.25
2022-11-21T05:25:57.170Z,96617.53
2022-11-21T05:28:23.904Z,96634.84
2022-11-21T05:30:50.648Z,96621.03
2022-11-21T05:33:18.803Z,96612.56
2022-11-21T05:35:45.607Z,96602.72
2022-11-21T05:38:12.554Z,96610.47
2022-11-21T05:40:39.773Z,96616.78
2022-11-21T05:43:25.202Z,96627.66
2022-11-21T05:45:52.227Z,96626.34
2022-11-21T05:48:18.985Z,96636.41
2022-11-21T05:50:49.537Z,96629.34
2022-11-21T05:53:16.584Z,96632.16
2022-11-21T05:55:43.868Z,96641.94
2022-11-21T05:58:14.056Z,96644.88
2022-11-21T06:00:40.832Z,96648.50
2022-11-21T06:03:30.719Z,96642.41
2022-11-21T06:06:07.190Z,96653.63
2022-11-21T06:08:44.156Z,96644.50
2022-11-21T06:11:14.334Z,96641.19
2022-11-21T06:13:41.815Z,96648.53
2022-11-21T06:16:13.020Z,96646.34
2022-11-21T06:18:43.190Z,96639.78
2022-11-21T06:21:22.578Z,96645.03
2022-11-21T06:23:55.386Z,96647.03
2022-11-21T06:26:26.196Z,96643.94
2022-11-21T06:28:54.478Z,96661.34
2022-11-21T06:31:27.221Z,96657.03
2022-11-21T06:33:57.118Z,96654.66
2022-11-21T06:36:24.673Z,96648.69
2022-11-21T06:38:54.976Z,96654.56
2022-11-21T06:41:25.288Z,96656.78
2022-11-21T06:43:52.259Z,96669.78
2022-11-21T06:46:19.269Z,96655.16
2022-11-21T06:48:46.036Z,96659.50
2022-11-21T06:51:22.461Z,96661.94
2022-11-21T06:53:57.980Z,96653.81
2022-11-21T06:56:27.948Z,96663.06
2022-11-21T06:58:54.823Z,96669.97
2022-11-21T07:01:22.276Z,96675.81
2022-11-21T07:03:49.103Z,96670.44
2022-11-21T07:06:15.979Z,96671.25
2022-11-21T07:08:42.709Z,96674.78
2022-11-21T07:11:28.309Z,96677.03
2022-11-21T07:13:55.057Z,96669.81
2022-11-21T07:16:22.055Z,96676.59
2022-11-21T07:18:48.797Z,96668.06
2022-11-21T07:21:15.572Z,96670.63
2022-11-21T07:23:42.288Z,96669.81
2022-11-21T07:26:10.876Z,96673.78
2022-11-21T07:28:38.479Z,96678.00
2022-11-21T07:31:11.789Z,96681.31
2022-11-21T07:33:40.159Z,96685.44
2022-11-21T07:36:07.199Z,96675.94
2022-11-21T07:38:34.032Z,96676.66
2022-11-21T07:41:00.824Z,96679.00
2022-11-21T07:43:27.513Z,96676.94
2022-11-21T07:45:54.228Z,96675.06
2022-11-21T07:48:21.042Z,96665.34
2022-11-21T07:50:47.830Z,96669.47
2022-11-21T07:53:14.600Z,96669.47
2022-11-21T07:55:41.340Z,96676.25
2022-11-21T07:58:11.892Z,96675.31
2022-11-21T08:00:42.644Z,96682.75
2022-11-21T08:03:11.876Z,96680.63
2022-11-21T08:05:43.327Z,96693.91
2022-11-21T08:08:12.525Z,96692.75
2022-11-21T08:10:42.716Z,96694.88
2022-11-21T08:13:10.460Z,96697.00
2022-11-21T08:15:37.533Z,96704.28
2022-11-21T08:18:13.396Z,96686.72
2022-11-21T08:20:41.086Z,96692.38
2022-11-21T08:23:08.209Z,96702.97
2022-11-21T08:25:38.676Z,96684.44
2022-11-21T08:28:07.170Z,96688.69
2022-11-21T08:30:35.059Z,96680.50
2022-11-21T08:33:02.691Z,96676.03
2022-11-21T08:35:30.760Z,96680.72
2022-11-21T08:37:59.324Z,96670.63
2022-11-21T08:40:28.505Z,96683.06
2022-11-21T08:43:01.376Z,96687.41
2022-11-21T08:45:28.611Z,96683.41
2022-11-21T08:47:55.397Z,96676.28
2022-11-21T08:50:23.778Z,96692.97
2022-11-21T08:52:51.082Z,96695.91
2022-11-21T08:55:18.006Z,96681.47
2022-11-21T08:57:44.738Z,96687.09
2022-11-21T09:00:14.474Z,96683.81
2022-11-21T09:02:41.254Z,96692.59
2022-11-21T09:05:09.497Z,96696.00
2022-11-21T09:07:36.832Z,96686.59
2022-11-21T09:10:04.488Z,96699.72
2022-11-21T09:12:31.487Z,96690.44
2022-11-21T09:15:16.575Z,96697.50
2022-11-21T09:18:01.959Z,96692.75
2022-11-21T09:20:29.548Z,96693.28
2022-11-21T09:22:56.483Z,96690.28
2022-11-21T09:25:23.224Z,96697.44
2022-11-21T09:27:49.911Z,96692.50
2022-11-21T09:30:16.828Z,96684.25
2022-11-21T09:32:43.525Z,96699.03
2022-11-21T09:35:10.278Z,96699.03
2022-11-21T09:37:40.136Z,96694.22
2022-11-21T09:40:10.209Z,96690.38
2022-11-21T09:43:21.134Z,96690.72
2022-11-21T09:45:57.133Z,96693.41
2022-11-21T09:48:35.085Z,96698.59
2022-11-21T09:51:13.941Z,96688.63
2022-11-21T09:54:00.280Z,96693.16
2022-11-21T09:56:34.001Z,96703.06
2022-11-21T09:59:12.716Z,96698.81
2022-11-21T10:01:39.426Z,96699.16
2022-11-21T10:04:06.319Z,96714.81
2022-11-21T10:07:12.919Z,96701.50
2022-11-21T10:10:28.779Z,96702.88
2022-11-21T10:13:16.511Z,96699.88
2022-11-21T10:16:03.210Z,96702.47
2022-11-21T10:19:26.028Z,96696.06
2022-11-21T10:22:49.175Z,96695.00
2022-11-21T10:25:27.494Z,96683.13
2022-11-21T10:28:29.280Z,96671.63
2022-11-21T10:30:59.484Z,96667.66
2022-11-21T10:33:36.314Z,96664.16
2022-11-21T10:36:25.412Z,96671.91
2022-11-21T10:39:02.802Z,96661.78
2022-11-21T10:41:43.844Z,96664.50
2022-11-21T10:44:43.574Z,96666.13
2022-11-21T10:47:37.430Z,96657.19
2022-11-21T10:51:02.541Z,96657.69
2022-11-21T10:53:49.333Z,96655.16
2022-11-21T10:56:21.334Z,96662.22
2022-11-21T10:58:56.262Z,96669.78
2022-11-21T11:01:33.712Z,96661.59
2022-11-21T11:04:27.253Z,96665.94
2022-11-21T11:06:55.195Z,96661.72
2022-11-21T11:09:28.040Z,96660.22
2022-11-21T11:12:50.562Z,96661.59
2022-11-21T11:15:26.845Z,96656.56
2022-11-21T11:18:08.829Z,96655.03
2022-11-21T11:20:45.007Z,96640.00
2022-11-21T11:23:26.635Z,96644.50
2022-11-21T11:25:59.536Z,96645.06
2022-11-21T11:28:35.329Z,96643.44
2022-11-21T11:31:03.089Z,96646.63
2022-11-21T11:33:47.476Z,96634.13
2022-11-21T11:36:52.182Z,96637.78
2022-11-21T11:39:40.355Z,96630.84
2022-11-21T11:43:00.870Z,96637.25
2022-11-21T11:46:11.184Z,96629.16
2022-11-21T11:49:10.939Z,96617.63
2022-11-21T11:51:38.345Z,96617.75
2022-11-21T11:54:22.089Z,96619.72
2022-11-21T11:56:49.617Z,96617.78
2022-11-21T11:59:37.194Z,96605.97
2022-11-21T12:02:21.519Z,96612.97
2022-11-21T12:05:02.749Z,96611.94
2022-11-21T12:08:39.483Z,96616.50
2022-11-21T12:11:12.869Z,96609.56
2022-11-21T12:13:41.321Z,96603.28
2022-11-21T12:16:14.342Z,96596.69
2022-11-21T12:19:07.759Z,96590.47
2022-11-21T12:21:34.553Z,96593.59
2022-11-21T12:24:04.513Z,96587.59
2022-11-21T12:26:36.067Z,96594.28
2022-11-21T12:29:20.217Z,96583.06
2022-11-21T12:32:40.735Z,96564.59
2022-11-21T12:35:37.012Z,96567.38
2022-11-21T12:38:44.898Z,96571.22
2022-11-21T12:42:04.456Z,96564.25
2022-11-21T12:44:58.142Z,96561.38
2022-11-21T12:48:24.628Z,96552.88
2022-11-21T12:51:47.017Z,96554.91
2022-11-21T12:55:03.248Z,96555.66
2022-11-21T12:57:39.232Z,96555.94
2022-11-21T13:00:25.920Z,96544.63
2022-11-21T13:03:54.596Z,96548.97
2022-11-21T13:06:33.443Z,96540.00
2022-11-21T13:09:05.556Z,96543.13
2022-11-21T13:12:00.175Z,96540.53
2022-11-21T13:14:39.134Z,96539.75
2022-11-21T13:17:25.268Z,96538.28
2022-11-21T13:20:01.994Z,96533.16
2022-11-21T13:22:37.538Z,96527.94
2022-11-21T13:25:13.255Z,96515.63
2022-11-21T13:27:42.320Z,96516.13
2022-11-21T13:30:09.464Z,96512.13
2022-11-21T13:32:45.266Z,96513.47
2022-11-21T13:35:15.162Z,96510.84
2022-11-21T13:38:08.539Z,96507.22
2022-11-21T13:41:00.312Z,96502.25
2022-11-21T13:43:35.777Z,96501.00
2022-11-21T13:46:03.121Z,96491.56
2022-11-21T13:48:36.509Z,96491.84
2022-11-21T13:51:15.831Z,96483.09
2022-11-21T13:54:19.321Z,96460.19
2022-11-21T13:57:10.661Z,96463.19
2022-11-21T14:00:04.967Z,96455.63
2022-11-21T14:03:16.993Z,96457.56
2022-11-21T14:06:04.672Z,96455.50
2022-11-21T14:08:31.798Z,96447.69
2022-11-21T14:10:58.907Z,96456.03
2022-11-21T14:13:37.037Z,96454.81
2022-11-21T14:16:42.713Z,96446.75
2022-11-21T14:19:20.374Z,96437.53
2022-11-21T14:21:49.245Z,96441.25
2022-11-21T14:24:19.582Z,96432.34
2022-11-21T14:26:52.062Z,96436.13
2022-11-21T14:29:41.172Z,96436.56
2022-11-21T14:32:15.294Z,96430.50
2022-11-21T14:34:42.127Z,96438.25
2022-11-21T14:37:12.675Z,96436.41
2022-11-21T14:39:44.755Z,96436.34
2022-11-21T14:42:16.128Z,96425.38
2022-11-21T14:44:43.825Z,96424.13
2022-11-21T14:47:25.761Z,96436.38
2022-11-21T14:49:59.627Z,96432.72
2022-11-21T14:52:33.807Z,96419.38
2022-11-21T14:57:52.312Z,96420.34
2022-11-21T15:00:59.031Z,96416.34
2022-11-21T15:03:23.094Z,96416.00
2022-11-21T15:06:07.256Z,96405.59
2022-11-21T15:11:38.497Z,96390.59
2022-11-21T15:14:37.847Z,96384.41
2022-11-21T15:17:11.728Z,96379.59
2022-11-21T15:19:38.833Z,96374.75
2022-11-21T15:22:05.531Z,96370.84
2022-11-21T15:24:42.941Z,96356.38
2022-11-21T15:27:28.043Z,96350.56
2022-11-21T15:30:21.846Z,96335.41
2022-11-21T15:33:16.436Z,96336.63
2022-11-21T15:35:56.003Z,96330.94
2022-11-21T15:38:24.775Z,96330.03
2022-11-21T15:41:06.925Z,96321.59
2022-11-21T15:44:02.006Z,96317.56
2022-11-21T15:46:41.965Z,96324.84
2022-11-21T15:52:10.072Z,96318.66
2022-11-21T15:54:37.017Z,96318.59
2022-11-21T15:57:03.744Z,96323.63
2022-11-21T15:59:30.891Z,96321.88
2022-11-21T16:01:58.021Z,96327.84
2022-11-21T16:04:26.153Z,96338.50
2022-11-21T16:06:54.676Z,96344.34
2022-11-21T16:09:21.404Z,96334.53
2022-11-21T16:11:48.201Z,96329.84
2022-11-21T16:14:18.096Z,96329.50
2022-11-21T16:16:47.113Z,96333.25
2022-11-21T16:19:15.805Z,96330.06
2022-11-21T16:21:43.889Z,96320.00
2022-11-21T16:24:10.634Z,96310.75
2022-11-21T16:26:37.333Z,96313.69
2022-11-21T16:29:05.573Z,96308.88
2022-11-21T16:31:33.677Z,96295.44
2022-11-21T16:34:00.678Z,96293.91
2022-11-21T16:36:30.465Z,96278.81
2022-11-21T16:39:01.787Z,96274.59
2022-11-21T16:41:29.213Z,96275.88
2022-11-21T16:43:56.146Z,96271.31
2022-11-21T16:46:25.868Z,96268.25
2022-11-21T16:49:03.087Z,96270.25
2022-11-21T16:51:30.606Z,96270.81
2022-11-21T16:54:00.622Z,96265.41
2022-11-21T16:56:31.332Z,96269.25
2022-11-21T16:58:58.081Z,96267.13
2022-11-21T17:01:26.890Z,96267.13
2022-11-21T17:03:54.051Z,96256.84
2022-11-21T17:06:24.807Z,96261.91
2022-11-21T17:08:51.525Z,96256.03
2022-11-21T17:11:29.143Z,96252.75
2022-11-21T17:14:03.088Z,96249.72
2022-11-21T17:16:30.982Z,96241.50
2022-11-21T17:19:00.975Z,96246.19
2022-11-21T17:21:29.606Z,96231.00
2022-11-21T17:23:56.723Z,96237.28
2022-11-21T17:26:27.551Z,96231.53
2022-11-21T17:28:57.572Z,96224.28
2022-11-21T17:31:24.590Z,96209.09
2022-11-21T17:33:51.980Z,96199.41
2022-11-21T17:36:25.044Z,96199.41
2022-11-21T17:38:53.027Z,96195.91
2022-11-21T17:41:22.050Z,96190.78
2022-11-21T17:43:48.921Z,96184.69
2022-11-21T17:46:18.796Z,96168.22
2022-11-21T17:48:54.299Z,96171.72
2022-11-21T17:51:25.872Z,96167.41
2022-11-21T17:53:52.926Z,96164.16
2022-11-21T17:56:23.003Z,96168.91
2022-11-21T17:58:51.748Z,96164.00
2022-11-21T18:01:19.682Z,96163.41
2022-11-21T18:03:49.221Z,96168.78
2022-11-21T18:06:17.165Z,96172.47
2022-11-21T18:08:48.263Z,96168.41
2022-11-21T18:11:19.614Z,96161.03
2022-11-21T18:13:48.126Z,96145.16
2022-11-21T18:16:20.439Z,96154.94
2022-11-21T18:18:47.800Z,96153.41
2022-11-21T18:21:18.950Z,96144.06
2022-11-21T18:23:47.058Z,96147.34
2022-11-21T18:26:27.033Z,96136.25
2022-11-21T18:31:46.382Z,96138.22
2022-11-21T18:34:13.154Z,96138.22
2022-11-21T18:36:40.575Z,96128.78
2022-11-21T18:39:14.061Z,96117.81
2022-11-21T18:41:42.638Z,96126.63
2022-11-21T18:44:10.077Z,96127.81
2022-11-21T18:46:38.533Z,96132.47
2022-11-21T18:49:07.493Z,96131.84
2022-11-21T18:51:36.376Z,96123.78
2022-11-21T18:54:08.689Z,96098.66
2022-11-21T18:56:38.366Z,96098.88
2022-11-21T18:59:08.938Z,96095.72
2022-11-21T19:01:39.188Z,96100.16
2022-11-21T19:04:06.132Z,96091.72
2022-11-21T19:06:33.268Z,96090.78
2022-11-21T19:09:00.187Z,96091.53
2022-11-21T19:11:29.613Z,96086.97
2022-11-21T19:13:58.090Z,96074.03
2022-11-21T19:16:27.739Z,96073.81
2022-11-21T19:21:43.521Z,96062.41
2022-11-21T19:24:16.559Z,96073.97
2022-11-21T19:26:43.413Z,96063.47
2022-11-21T19:29:10.930Z,96060.66
2022-11-21T19:31:44.707Z,96057.09
2022-11-21T19:34:14.975Z,96057.09
2022-11-21T19:36:42.697Z,96049.28
2022-11-21T19:39:09.907Z,96053.47
2022-11-21T19:41:37.209Z,96055.91
2022-11-21T19:44:04.481Z,96065.72
2022-11-21T19:46:37.818Z,96075.06
2022-11-21T19:49:06.453Z,96080.00
2022-11-21T19:51:37.040Z,96074.16
2022-11-21T19:54:06.561Z,96070.97
2022-11-21T19:56:34.515Z,96077.38
2022-11-21T19:59:01.276Z,96073.19
2022-11-21T20:01:31.312Z,96062.22
2022-11-21T20:04:01.636Z,96056.34
2022-11-21T20:06:33.430Z,96057.28
2022-11-21T20:09:06.927Z,96055.19
2022-11-21T20:11:34.892Z,96031.63
2022-11-21T20:14:02.082Z,96039.31
2022-11-21T20:16:38.444Z,96027.63
2022-11-21T20:19:12.194Z,96027.84
2022-11-21T20:21:39.239Z,96033.09
2022-11-21T20:24:07.418Z,96029.59
2022-11-21T20:26:35.267Z,96038.81
2022-11-21T20:29:03.009Z,96039.53
2022-11-21T20:31:33.813Z,96023.19
2022-11-21T20:34:04.421Z,96031.13
2022-11-21T20:36:34.405Z,96024.13
2022-11-21T20:39:13.234Z,96008.59
2022-11-21T20:41:41.296Z,96008.59
2022-11-21T20:47:06.873Z,95988.19
2022-11-21T20:49:34.324Z,95988.44
2022-11-21T20:54:47.923Z,95959.97
2022-11-21T20:57:15.656Z,95964.03
2022-11-21T20:59:43.322Z,95940.75
2022-11-21T21:02:14.040Z,95937.00
2022-11-21T21:04:41.525Z,95948.56
2022-11-21T21:07:08.312Z,95952.31
2022-11-21T21:09:35.092Z,95948.34
2022-11-21T21:12:01.814Z,95944.63
2022-11-21T21:14:28.605Z,95944.38
2022-11-21T21:16:55.321Z,95917.63
2022-11-21T21:19:22.242Z,95917.53
2022-11-21T21:21:49.531Z,95908.91
2022-11-21T21:24:17.068Z,95911.47
2022-11-21T21:26:47.444Z,95909.81
2022-11-21T21:29:20.928Z,95917.63
2022-11-21T21:31:51.560Z,95912.88
2022-11-21T21:34:20.962Z,95919.06
2022-11-21T21:36:48.402Z,95911.59
2022-11-21T21:39:15.416Z,95911.13
2022-11-21T21:41:46.211Z,95914.75
2022-11-21T21:44:13.939Z,95917.44
2022-11-21T21:46:40.723Z,95908.41
2022-11-21T21:49:07.810Z,95905.41
2022-11-21T21:51:36.644Z,95904.94
2022-11-21T21:54:04.395Z,95917.28
2022-11-21T21:56:31.125Z,95909.69
2022-11-21T21:58:58.700Z,95910.88
2022-11-21T22:01:29.060Z,95922.19
2022-11-21T22:03:59.247Z,95921.56
2022-11-21T22:06:27.519Z,95938.03
2022-11-21T22:08:55.350Z,95924.50
2022-11-21T22:11:29.090Z,95936.63
2022-11-21T22:14:02.732Z,95936.84
2022-11-21T22:16:30.043Z,95926.78
2022-11-21T22:18:57.620Z,95927.84
2022-11-21T22:21:27.862Z,95926.22
2022-11-21T22:26:46.718Z,95913.75
2022-11-21T22:29:13.478Z,95915.59
2022-11-21T22:31:40.325Z,95912.09
2022-11-21T22:34:07.044Z,95910.47
2022-11-21T22:36:33.872Z,95906.97
2022-11-21T22:39:01.164Z,95898.34
2022-11-21T22:41:28.195Z,95909.66
2022-11-21T22:43:58.475Z,95912.09
2022-11-21T22:46:28.030Z,95907.91
2022-11-21T22:48:55.210Z,95908.72
2022-11-21T22:51:25.864Z,95904.31
2022-11-21T22:53:52.960Z,95909.31
2022-11-21T22:56:23.144Z,95909.31
2022-11-21T22:58:50.323Z,95909.78
2022-11-21T23:01:24.157Z,95925.97
2022-11-21T23:03:51.562Z,95925.28
2022-11-21T23:06:24.547Z,95922.84
2022-11-21T23:08:53.624Z,95921.91
2022-11-21T23:11:27.723Z,95920.28
2022-11-21T23:13:56.177Z,95910.94
2022-11-21T23:16:23.737Z,95915.13
2022-11-21T23:18:53.752Z,95914.44
2022-11-21T23:21:21.320Z,95899.16
2022-11-21T23:23:48.436Z,95908.63
2022-11-21T23:26:15.581Z,95919.56
2022-11-21T23:28:42.317Z,95911.88
2022-11-21T23:31:10.316Z,95912.00
2022-11-21T23:33:37.056Z,95918.88
2022-11-21T23:36:04.405Z,95925.06
2022-11-21T23:38:31.455Z,95911.63
2022-11-21T23:40:58.139Z,95923.63
2022-11-21T23:43:24.882Z,95923.03
2022-11-21T23:45:53.753Z,95925.59
2022-11-21T23:48:21.428Z,95929.09
2022-11-21T23:50:50.693Z,95931.66
2022-11-21T23:53:18.548Z,95923.84
2022-11-21T23:55:45.792Z,95929.78
2022-11-21T23:58:13.193Z,95927.00
